createdAt,value
2019-02-15T00:00:09.211Z,1024.81
2019-02-15T00:01:09.780Z,1024.84
2019-02-15T00:02:10.354Z,1024.77
2019-02-15T00:03:10.932Z,1024.88
2019-02-15T00:04:11.510Z,1024.86
2019-02-15T00:05:12.085Z,1024.90
2019-02-15T00:06:12.661Z,1024.79
2019-02-15T00:07:13.284Z,1024.77
2019-02-15T00:08:13.861Z,1024.83
2019-02-15T00:09:14.434Z,1024.88
2019-02-15T00:10:15.010Z,1024.95
2019-02-15T00:11:15.585Z,1024.90
2019-02-15T00:12:16.162Z,1024.86
2019-02-15T00:13:16.737Z,1024.94
2019-02-15T00:14:17.363Z,1024.93
2019-02-15T00:15:17.942Z,1024.79
2019-02-15T00:16:18.517Z,1024.91
2019-02-15T00:17:19.095Z,1024.91
2019-02-15T00:18:19.670Z,1024.93
2019-02-15T00:19:20.247Z,1024.94
2019-02-15T00:20:20.822Z,1025.01
2019-02-15T00:21:21.401Z,1024.96
2019-02-15T00:22:21.975Z,1024.91
2019-02-15T00:23:22.553Z,1024.91
2019-02-15T00:24:23.125Z,1024.91
2019-02-15T00:25:23.702Z,1024.94
2019-02-15T00:26:24.277Z,1024.99
2019-02-15T00:27:24.851Z,1024.96
2019-02-15T00:28:25.427Z,1025.06
2019-02-15T00:29:26.002Z,1024.94
2019-02-15T00:31:37.198Z,1024.96
2019-02-15T00:32:37.822Z,1024.92
2019-02-15T00:33:38.502Z,1025.02
2019-02-15T00:34:39.026Z,1024.95
2019-02-15T00:35:39.600Z,1025.06
2019-02-15T00:36:40.217Z,1025.06
2019-02-15T00:37:40.791Z,1025.06
2019-02-15T00:38:41.364Z,1025.07
2019-02-15T00:39:41.940Z,1025.05
2019-02-15T00:40:42.514Z,1025.05
2019-02-15T00:41:43.088Z,1025.06
2019-02-15T00:42:43.665Z,1025.05
2019-02-15T00:43:44.242Z,1025.13
2019-02-15T00:44:44.817Z,1025.06
2019-02-15T00:45:45.394Z,1025.09
2019-02-15T00:46:45.970Z,1025.11
2019-02-15T00:47:46.548Z,1025.12
2019-02-15T00:48:47.120Z,1025.13
2019-02-15T00:49:47.695Z,1025.09
2019-02-15T00:50:48.271Z,1025.09
2019-02-15T00:51:48.842Z,1025.12
2019-02-15T00:52:49.416Z,1025.21
2019-02-15T00:53:49.998Z,1025.12
2019-02-15T00:54:50.612Z,1025.07
2019-02-15T00:55:51.188Z,1025.13
2019-02-15T00:56:51.764Z,1025.03
2019-02-15T00:57:52.338Z,1025.02
2019-02-15T00:58:52.914Z,1025.05
2019-02-15T00:59:53.488Z,1025.06
2019-02-15T01:00:54.062Z,1024.96
2019-02-15T01:01:54.634Z,1024.97
2019-02-15T01:02:55.214Z,1025.00
2019-02-15T01:03:55.783Z,1024.96
2019-02-15T01:04:56.359Z,1024.87
2019-02-15T01:05:56.935Z,1024.95
2019-02-15T01:06:57.659Z,1024.92
2019-02-15T01:07:58.382Z,1024.88
2019-02-15T01:08:58.955Z,1024.94
2019-02-15T01:09:59.531Z,1024.92
2019-02-15T01:11:00.105Z,1024.89
2019-02-15T01:12:00.681Z,1024.96
2019-02-15T01:13:01.257Z,1024.89
2019-02-15T01:14:01.832Z,1024.88
2019-02-15T01:15:02.406Z,1024.87
2019-02-15T01:16:02.980Z,1024.96
2019-02-15T01:17:03.554Z,1024.83
2019-02-15T01:18:04.128Z,1024.89
2019-02-15T01:19:04.704Z,1024.89
2019-02-15T01:20:05.280Z,1024.84
2019-02-15T01:21:05.854Z,1024.85
2019-02-15T01:22:06.429Z,1024.90
2019-02-15T01:23:07.058Z,1024.87
2019-02-15T01:24:07.632Z,1024.84
2019-02-15T01:25:08.207Z,1024.88
2019-02-15T01:26:08.832Z,1024.84
2019-02-15T01:27:09.457Z,1024.92
2019-02-15T01:28:10.033Z,1024.87
2019-02-15T01:29:10.607Z,1024.85
2019-02-15T01:30:11.181Z,1024.86
2019-02-15T01:31:11.757Z,1024.83
2019-02-15T01:32:12.375Z,1024.88
2019-02-15T01:33:12.949Z,1024.82
2019-02-15T01:34:13.523Z,1024.77
2019-02-15T01:35:14.101Z,1024.86
2019-02-15T01:36:14.677Z,1024.83
2019-02-15T01:37:15.250Z,1024.83
2019-02-15T01:38:15.825Z,1024.84
2019-02-15T01:39:16.399Z,1024.82
2019-02-15T01:40:16.975Z,1024.82
2019-02-15T01:41:17.552Z,1024.89
2019-02-15T01:42:18.130Z,1024.88
2019-02-15T01:43:18.752Z,1024.86
2019-02-15T01:44:19.331Z,1024.83
2019-02-15T01:45:19.905Z,1024.90
2019-02-15T01:46:20.478Z,1024.87
2019-02-15T01:47:21.049Z,1024.87
2019-02-15T01:48:21.676Z,1024.90
2019-02-15T01:49:22.249Z,1024.87
2019-02-15T01:50:22.822Z,1024.88
2019-02-15T01:51:23.396Z,1024.88
2019-02-15T01:52:23.971Z,1024.82
2019-02-15T01:53:24.546Z,1024.86
2019-02-15T01:54:25.141Z,1024.84
2019-02-15T01:55:25.693Z,1024.86
2019-02-15T01:56:26.267Z,1024.79
2019-02-15T01:57:26.838Z,1024.83
2019-02-15T01:58:27.413Z,1024.85
2019-02-15T01:59:27.985Z,1024.80
2019-02-15T02:00:28.559Z,1024.78
2019-02-15T02:01:29.132Z,1024.71
2019-02-15T02:02:29.707Z,1024.78
2019-02-15T02:03:30.281Z,1024.80
2019-02-15T02:04:30.860Z,1024.80
2019-02-15T02:05:31.481Z,1024.80
2019-02-15T02:06:32.059Z,1024.83
2019-02-15T02:07:32.629Z,1024.83
2019-02-15T02:08:33.251Z,1024.85
2019-02-15T02:09:33.829Z,1024.83
2019-02-15T02:10:34.404Z,1024.81
2019-02-15T02:11:34.981Z,1024.88
2019-02-15T02:12:35.556Z,1024.84
2019-02-15T02:13:36.134Z,1024.80
2019-02-15T02:14:36.707Z,1024.81
2019-02-15T02:15:37.282Z,1024.80
2019-02-15T02:16:37.910Z,1024.84
2019-02-15T02:17:38.523Z,1024.80
2019-02-15T02:18:39.098Z,1024.83
2019-02-15T02:19:39.672Z,1024.78
2019-02-15T02:20:40.246Z,1024.77
2019-02-15T02:21:40.869Z,1024.77
2019-02-15T02:22:41.493Z,1024.83
2019-02-15T02:23:42.073Z,1024.80
2019-02-15T02:24:42.685Z,1024.74
2019-02-15T02:25:43.265Z,1024.77
2019-02-15T02:26:43.834Z,1024.88
2019-02-15T02:27:44.410Z,1024.74
2019-02-15T02:28:44.984Z,1024.78
2019-02-15T02:29:45.559Z,1024.77
2019-02-15T02:30:46.135Z,1024.84
2019-02-15T02:31:46.709Z,1024.85
2019-02-15T02:32:47.283Z,1024.87
2019-02-15T02:33:47.856Z,1024.79
2019-02-15T02:34:48.431Z,1024.83
2019-02-15T02:35:49.003Z,1024.84
2019-02-15T02:36:49.627Z,1024.82
2019-02-15T02:37:50.201Z,1024.86
2019-02-15T02:38:50.775Z,1024.90
2019-02-15T02:39:51.349Z,1024.82
2019-02-15T02:40:51.924Z,1024.73
2019-02-15T02:41:52.502Z,1024.76
2019-02-15T02:42:53.073Z,1024.77
2019-02-15T02:43:59.404Z,1024.76
2019-02-15T02:44:55.215Z,1024.86
2019-02-15T02:45:55.791Z,1024.78
2019-02-15T02:46:56.365Z,1024.74
2019-02-15T02:47:56.984Z,1024.74
2019-02-15T02:48:57.559Z,1024.79
2019-02-15T02:49:58.140Z,1024.75
2019-02-15T02:50:58.762Z,1024.85
2019-02-15T02:51:59.378Z,1024.84
2019-02-15T02:52:59.951Z,1024.82
2019-02-15T02:54:00.526Z,1024.82
2019-02-15T02:55:01.099Z,1024.82
2019-02-15T02:56:01.711Z,1024.88
2019-02-15T02:57:02.339Z,1024.82
2019-02-15T02:58:02.955Z,1024.84
2019-02-15T02:59:03.523Z,1024.79
2019-02-15T03:00:04.103Z,1024.86
2019-02-15T03:01:04.670Z,1024.82
2019-02-15T03:02:05.247Z,1024.85
2019-02-15T03:03:05.817Z,1024.82
2019-02-15T03:04:06.390Z,1024.77
2019-02-15T03:05:06.963Z,1024.87
2019-02-15T03:06:07.538Z,1024.74
2019-02-15T03:07:08.127Z,1024.79
2019-02-15T03:08:08.685Z,1024.85
2019-02-15T03:09:09.276Z,1024.78
2019-02-15T03:10:09.886Z,1024.89
2019-02-15T03:11:10.466Z,1024.83
2019-02-15T03:12:11.037Z,1024.86
2019-02-15T03:13:11.613Z,1024.92
2019-02-15T03:14:12.202Z,1024.90
2019-02-15T03:15:12.817Z,1024.82
2019-02-15T03:16:13.434Z,1024.91
2019-02-15T03:17:14.008Z,1024.87
2019-02-15T03:18:14.587Z,1024.87
2019-02-15T03:19:15.156Z,1024.88
2019-02-15T03:20:15.733Z,1024.93
2019-02-15T03:21:19.263Z,1024.86
2019-02-15T03:22:16.924Z,1024.92
2019-02-15T03:23:17.493Z,1024.92
2019-02-15T03:24:18.075Z,1024.89
2019-02-15T03:25:18.683Z,1024.90
2019-02-15T03:26:19.302Z,1024.91
2019-02-15T03:27:19.926Z,1024.85
2019-02-15T03:28:20.502Z,1024.80
2019-02-15T03:29:21.076Z,1024.82
2019-02-15T03:30:21.672Z,1024.82
2019-02-15T03:31:22.234Z,1024.86
2019-02-15T03:32:22.822Z,1024.79
2019-02-15T03:33:23.409Z,1024.75
2019-02-15T03:34:23.985Z,1024.84
2019-02-15T03:35:24.552Z,1024.80
2019-02-15T03:36:25.121Z,1024.85
2019-02-15T03:37:25.696Z,1024.74
2019-02-15T03:38:26.270Z,1024.72
2019-02-15T03:39:26.893Z,1024.75
2019-02-15T03:40:27.465Z,1024.71
2019-02-15T03:41:28.047Z,1024.75
2019-02-15T03:42:28.612Z,1024.73
2019-02-15T03:43:29.187Z,1024.69
2019-02-15T03:44:29.813Z,1024.68
2019-02-15T03:45:30.389Z,1024.56
2019-02-15T03:46:30.964Z,1024.65
2019-02-15T03:47:31.589Z,1024.65
2019-02-15T03:48:32.166Z,1024.66
2019-02-15T03:49:32.737Z,1024.66
2019-02-15T03:50:33.313Z,1024.59
2019-02-15T03:51:33.885Z,1024.58
2019-02-15T03:52:34.460Z,1024.57
2019-02-15T03:53:35.036Z,1024.58
2019-02-15T03:54:35.609Z,1024.58
2019-02-15T03:55:36.183Z,1024.63
2019-02-15T03:56:36.808Z,1024.62
2019-02-15T03:57:37.383Z,1024.64
2019-02-15T03:58:37.958Z,1024.64
2019-02-15T03:59:38.535Z,1024.66
2019-02-15T04:00:39.107Z,1024.65
2019-02-15T04:01:39.682Z,1024.65
2019-02-15T04:02:40.256Z,1024.63
2019-02-15T04:03:40.831Z,1024.71
2019-02-15T04:04:41.407Z,1024.71
2019-02-15T04:05:42.020Z,1024.67
2019-02-15T04:06:42.595Z,1024.71
2019-02-15T04:07:43.219Z,1024.70
2019-02-15T04:08:43.791Z,1024.64
2019-02-15T04:09:44.366Z,1024.70
2019-02-15T04:10:44.939Z,1024.79
2019-02-15T04:11:45.514Z,1024.72
2019-02-15T04:12:46.088Z,1024.77
2019-02-15T04:13:46.666Z,1024.75
2019-02-15T04:14:47.240Z,1024.79
2019-02-15T04:15:47.809Z,1024.79
2019-02-15T04:16:48.381Z,1024.84
2019-02-15T04:17:48.956Z,1024.78
2019-02-15T04:18:49.536Z,1024.82
2019-02-15T04:19:50.110Z,1024.86
2019-02-15T04:20:50.682Z,1024.79
2019-02-15T04:21:51.255Z,1024.80
2019-02-15T04:22:51.879Z,1024.80
2019-02-15T04:23:52.509Z,1024.84
2019-02-15T04:24:53.088Z,1024.82
2019-02-15T04:25:53.656Z,1024.84
2019-02-15T04:26:54.230Z,1024.86
2019-02-15T04:27:54.806Z,1024.88
2019-02-15T04:28:55.379Z,1024.84
2019-02-15T04:29:55.952Z,1024.89
2019-02-15T04:30:56.525Z,1024.87
2019-02-15T04:31:57.147Z,1024.86
2019-02-15T04:32:57.720Z,1024.84
2019-02-15T04:33:58.293Z,1024.89
2019-02-15T04:34:58.868Z,1024.85
2019-02-15T04:35:59.438Z,1024.89
2019-02-15T04:37:00.031Z,1024.87
2019-02-15T04:38:00.656Z,1024.82
2019-02-15T04:39:01.232Z,1024.81
2019-02-15T04:40:01.851Z,1024.78
2019-02-15T04:41:02.424Z,1024.77
2019-02-15T04:42:02.998Z,1024.79
2019-02-15T04:43:03.584Z,1024.75
2019-02-15T04:44:04.151Z,1024.78
2019-02-15T04:45:04.728Z,1024.67
2019-02-15T04:46:05.304Z,1024.77
2019-02-15T04:47:05.877Z,1024.76
2019-02-15T04:48:06.454Z,1024.77
2019-02-15T04:49:07.027Z,1024.74
2019-02-15T04:50:07.607Z,1024.72
2019-02-15T04:51:08.182Z,1024.77
2019-02-15T04:52:08.746Z,1024.79
2019-02-15T04:53:09.320Z,1024.77
2019-02-15T04:54:09.947Z,1024.76
2019-02-15T04:55:10.519Z,1024.81
2019-02-15T04:56:11.098Z,1024.80
2019-02-15T04:57:11.669Z,1024.82
2019-02-15T04:58:12.242Z,1024.79
2019-02-15T04:59:12.868Z,1024.76
2019-02-15T05:00:13.443Z,1024.86
2019-02-15T05:01:14.018Z,1024.85
2019-02-15T05:02:14.591Z,1024.87
2019-02-15T05:03:15.165Z,1024.83
2019-02-15T05:04:15.738Z,1024.82
2019-02-15T05:05:16.321Z,1024.78
2019-02-15T05:06:16.978Z,1024.82
2019-02-15T05:07:17.550Z,1024.78
2019-02-15T05:08:18.125Z,1024.81
2019-02-15T05:09:18.699Z,1024.80
2019-02-15T05:10:19.275Z,1024.85
2019-02-15T05:11:19.848Z,1024.82
2019-02-15T05:12:20.423Z,1024.86
2019-02-15T05:13:21.002Z,1024.74
2019-02-15T05:14:21.570Z,1024.90
2019-02-15T05:15:22.203Z,1024.85
2019-02-15T05:16:22.769Z,1024.93
2019-02-15T05:17:23.343Z,1024.95
2019-02-15T05:18:23.916Z,1024.92
2019-02-15T05:19:24.500Z,1024.91
2019-02-15T05:20:25.065Z,1024.91
2019-02-15T05:21:25.640Z,1024.99
2019-02-15T05:22:26.214Z,1024.99
2019-02-15T05:23:26.836Z,1024.95
2019-02-15T05:24:27.413Z,1024.94
2019-02-15T05:25:27.989Z,1025.03
2019-02-15T05:26:28.565Z,1025.00
2019-02-15T05:27:29.137Z,1025.02
2019-02-15T05:28:29.712Z,1025.05
2019-02-15T05:29:30.285Z,1025.11
2019-02-15T05:30:30.861Z,1025.00
2019-02-15T05:31:31.433Z,1025.07
2019-02-15T05:32:32.013Z,1025.00
2019-02-15T05:33:32.583Z,1025.08
2019-02-15T05:34:33.154Z,1025.01
2019-02-15T05:35:33.727Z,1025.08
2019-02-15T05:36:34.301Z,1025.01
2019-02-15T05:37:34.879Z,1025.00
2019-02-15T05:38:35.446Z,1024.98
2019-02-15T05:39:36.019Z,1024.97
2019-02-15T05:40:36.595Z,1025.05
2019-02-15T05:41:37.211Z,1024.90
2019-02-15T05:42:37.787Z,1024.91
2019-02-15T05:43:38.366Z,1024.96
2019-02-15T05:44:38.982Z,1024.90
2019-02-15T05:45:39.607Z,1024.80
2019-02-15T05:46:40.181Z,1024.90
2019-02-15T05:47:40.767Z,1024.91
2019-02-15T05:48:41.328Z,1024.84
2019-02-15T05:49:41.907Z,1024.86
2019-02-15T05:50:42.475Z,1024.91
2019-02-15T05:51:43.058Z,1024.86
2019-02-15T05:52:43.623Z,1024.83
2019-02-15T05:53:44.199Z,1024.85
2019-02-15T05:54:44.776Z,1024.81
2019-02-15T05:55:45.347Z,1024.80
2019-02-15T05:56:45.920Z,1024.88
2019-02-15T05:57:46.495Z,1024.82
2019-02-15T05:58:47.070Z,1024.87
2019-02-15T05:59:47.642Z,1024.84
2019-02-15T06:00:48.228Z,1024.84
2019-02-15T06:01:48.832Z,1024.76
2019-02-15T06:02:49.408Z,1024.81
2019-02-15T06:03:49.983Z,1024.80
2019-02-15T06:04:50.607Z,1024.73
2019-02-15T06:05:51.231Z,1024.76
2019-02-15T06:06:51.900Z,1024.80
2019-02-15T06:07:52.476Z,1024.80
2019-02-15T06:08:53.050Z,1024.79
2019-02-15T06:09:53.626Z,1024.85
2019-02-15T06:10:54.200Z,1024.77
2019-02-15T06:11:54.775Z,1024.78
2019-02-15T06:12:55.349Z,1024.79
2019-02-15T06:13:56.008Z,1024.72
2019-02-15T06:14:56.549Z,1024.82
2019-02-15T06:15:57.121Z,1024.82
2019-02-15T06:16:57.694Z,1024.84
2019-02-15T06:17:58.267Z,1024.87
2019-02-15T06:18:58.843Z,1024.79
2019-02-15T06:19:59.424Z,1024.90
2019-02-15T06:20:59.987Z,1024.83
2019-02-15T06:22:00.765Z,1024.80
2019-02-15T06:23:01.335Z,1024.79
2019-02-15T06:24:01.910Z,1024.86
2019-02-15T06:25:02.482Z,1024.88
2019-02-15T06:26:03.127Z,1024.90
2019-02-15T06:27:03.704Z,1024.93
2019-02-15T06:28:04.276Z,1024.89
2019-02-15T06:29:04.872Z,1024.86
2019-02-15T06:30:05.419Z,1024.84
2019-02-15T06:31:06.102Z,1024.90
2019-02-15T06:32:06.770Z,1024.94
2019-02-15T06:33:07.347Z,1024.91
2019-02-15T06:34:07.931Z,1024.91
2019-02-15T06:35:08.490Z,1024.99
2019-02-15T06:36:09.063Z,1024.97
2019-02-15T06:37:09.690Z,1024.96
2019-02-15T06:38:10.260Z,1024.96
2019-02-15T06:39:10.834Z,1024.94
2019-02-15T06:40:11.413Z,1024.98
2019-02-15T06:41:12.556Z,1024.92
2019-02-15T06:42:13.164Z,1024.98
2019-02-15T06:43:13.735Z,1024.96
2019-02-15T06:44:14.311Z,1025.04
2019-02-15T06:45:24.056Z,1025.06
2019-02-15T06:46:16.501Z,1025.06
2019-02-15T06:47:17.130Z,1025.03
2019-02-15T06:48:17.744Z,1025.09
2019-02-15T06:49:18.396Z,1025.09
2019-02-15T06:50:19.000Z,1025.15
2019-02-15T06:51:19.544Z,1025.15
2019-02-15T06:52:20.168Z,1025.23
2019-02-15T06:53:20.740Z,1025.15
2019-02-15T06:54:21.314Z,1025.17
2019-02-15T06:55:21.887Z,1025.19
2019-02-15T06:56:22.458Z,1025.18
2019-02-15T06:57:23.031Z,1025.16
2019-02-15T06:58:23.605Z,1025.16
2019-02-15T06:59:24.218Z,1025.29
2019-02-15T07:00:24.790Z,1025.27
2019-02-15T07:01:25.363Z,1025.30
2019-02-15T07:02:25.937Z,1025.29
2019-02-15T07:03:26.710Z,1025.31
2019-02-15T07:04:27.283Z,1025.44
2019-02-15T07:05:27.907Z,1025.46
2019-02-15T07:06:28.478Z,1025.40
2019-02-15T07:07:29.053Z,1025.37
2019-02-15T07:08:29.626Z,1025.50
2019-02-15T07:09:30.271Z,1025.52
2019-02-15T07:10:30.823Z,1025.51
2019-02-15T07:11:31.438Z,1025.47
2019-02-15T07:12:32.012Z,1025.53
2019-02-15T07:13:32.585Z,1025.49
2019-02-15T07:14:33.157Z,1025.58
2019-02-15T07:15:34.160Z,1025.58
2019-02-15T07:16:34.343Z,1025.53
2019-02-15T07:17:34.916Z,1025.64
2019-02-15T07:18:35.540Z,1025.58
2019-02-15T07:19:36.113Z,1025.57
2019-02-15T07:20:36.689Z,1025.65
2019-02-15T07:21:37.261Z,1025.66
2019-02-15T07:22:37.837Z,1025.67
2019-02-15T07:23:38.410Z,1025.67
2019-02-15T07:24:38.985Z,1025.73
2019-02-15T07:25:39.609Z,1025.74
2019-02-15T07:26:40.232Z,1025.70
2019-02-15T07:27:40.808Z,1025.68
2019-02-15T07:28:41.380Z,1025.70
2019-02-15T07:29:41.954Z,1025.68
2019-02-15T07:30:42.566Z,1025.82
2019-02-15T07:31:43.102Z,1025.82
2019-02-15T07:32:43.677Z,1025.86
2019-02-15T07:33:44.250Z,1025.76
2019-02-15T07:34:44.873Z,1025.84
2019-02-15T07:35:45.444Z,1025.79
2019-02-15T07:36:47.767Z,1025.76
2019-02-15T07:37:47.581Z,1025.84
2019-02-15T07:38:48.154Z,1025.87
2019-02-15T07:39:48.730Z,1025.84
2019-02-15T07:40:49.300Z,1025.87
2019-02-15T07:41:49.877Z,1025.90
2019-02-15T07:42:50.591Z,1025.93
2019-02-15T07:43:51.135Z,1025.93
2019-02-15T07:44:51.758Z,1025.88
2019-02-15T07:45:52.376Z,1025.91
2019-02-15T07:46:52.953Z,1025.96
2019-02-15T07:47:53.535Z,1026.06
2019-02-15T07:48:54.099Z,1025.98
2019-02-15T07:49:54.722Z,1026.04
2019-02-15T07:50:55.298Z,1026.05
2019-02-15T07:51:55.874Z,1026.07
2019-02-15T07:52:56.450Z,1026.12
2019-02-15T07:53:57.017Z,1026.04
2019-02-15T07:54:57.592Z,1026.07
2019-02-15T07:55:58.169Z,1026.04
2019-02-15T07:56:58.739Z,1026.09
2019-02-15T07:57:59.312Z,1026.09
2019-02-15T07:58:59.887Z,1026.05
2019-02-15T08:00:00.734Z,1026.06
2019-02-15T08:01:01.567Z,1026.08
2019-02-15T08:02:02.345Z,1026.08
2019-02-15T08:03:02.902Z,1026.12
2019-02-15T08:04:03.473Z,1026.13
2019-02-15T08:05:04.096Z,1026.15
2019-02-15T08:06:04.675Z,1026.13
2019-02-15T08:07:05.250Z,1026.12
2019-02-15T08:08:05.818Z,1026.21
2019-02-15T08:09:06.391Z,1026.21
2019-02-15T08:10:06.966Z,1026.21
2019-02-15T08:11:07.537Z,1026.28
2019-02-15T08:12:08.113Z,1026.32
2019-02-15T08:13:08.691Z,1026.38
2019-02-15T08:14:14.969Z,1026.32
2019-02-15T08:15:10.825Z,1026.32
2019-02-15T08:16:11.454Z,1026.37
2019-02-15T08:17:12.023Z,1026.42
2019-02-15T08:18:12.596Z,1026.38
2019-02-15T08:19:13.172Z,1026.37
2019-02-15T08:20:13.945Z,1026.37
2019-02-15T08:21:14.521Z,1026.32
2019-02-15T08:22:15.241Z,1026.41
2019-02-15T08:23:15.814Z,1026.49
2019-02-15T08:24:16.383Z,1026.53
2019-02-15T08:25:17.007Z,1026.49
2019-02-15T08:26:22.635Z,1026.53
2019-02-15T08:27:23.207Z,1026.56
2019-02-15T08:28:23.805Z,1026.53
2019-02-15T08:29:24.355Z,1026.54
2019-02-15T08:30:24.930Z,1026.53
2019-02-15T08:31:25.505Z,1026.64
2019-02-15T08:32:26.079Z,1026.58
2019-02-15T08:33:26.652Z,1026.52
2019-02-15T08:34:27.274Z,1026.61
2019-02-15T08:35:27.847Z,1026.63
2019-02-15T08:36:28.462Z,1026.71
2019-02-15T08:37:29.037Z,1026.77
2019-02-15T08:38:29.656Z,1026.77
2019-02-15T08:39:30.278Z,1026.78
2019-02-15T08:40:30.851Z,1026.74
2019-02-15T08:41:31.424Z,1026.83
2019-02-15T08:42:31.999Z,1026.76
2019-02-15T08:43:34.530Z,1026.78
2019-02-15T08:44:34.137Z,1026.83
2019-02-15T08:45:34.717Z,1026.83
2019-02-15T08:46:35.284Z,1026.89
2019-02-15T08:47:35.856Z,1026.84
2019-02-15T08:48:36.428Z,1026.86
2019-02-15T08:49:37.001Z,1026.88
2019-02-15T08:50:37.574Z,1026.86
2019-02-15T08:51:38.148Z,1026.89
2019-02-15T08:52:38.870Z,1026.87
2019-02-15T08:53:39.444Z,1026.90
2019-02-15T08:54:40.066Z,1026.88
2019-02-15T08:55:40.639Z,1026.90
2019-02-15T08:56:41.214Z,1026.89
2019-02-15T08:57:41.791Z,1026.98
2019-02-15T08:58:42.362Z,1026.91
2019-02-15T08:59:42.941Z,1027.01
2019-02-15T09:00:43.513Z,1026.96
2019-02-15T09:01:44.085Z,1027.04
2019-02-15T09:02:44.660Z,1026.97
2019-02-15T09:03:45.234Z,1026.99
2019-02-15T09:04:45.808Z,1027.05
2019-02-15T09:05:46.382Z,1027.06
2019-02-15T09:06:47.077Z,1026.95
2019-02-15T09:07:47.601Z,1026.99
2019-02-15T09:08:48.175Z,1026.96
2019-02-15T09:09:48.747Z,1027.02
2019-02-15T09:10:49.370Z,1027.03
2019-02-15T09:11:49.947Z,1027.04
2019-02-15T09:12:50.517Z,1027.09
2019-02-15T09:13:51.193Z,1027.04
2019-02-15T09:14:51.709Z,1027.07
2019-02-15T09:15:52.333Z,1027.17
2019-02-15T09:16:52.905Z,1027.09
2019-02-15T09:17:53.479Z,1027.11
2019-02-15T09:18:54.051Z,1027.13
2019-02-15T09:19:54.626Z,1027.14
2019-02-15T09:20:55.198Z,1027.09
2019-02-15T09:21:55.775Z,1027.11
2019-02-15T09:22:56.348Z,1027.09
2019-02-15T09:23:56.924Z,1027.12
2019-02-15T09:24:57.537Z,1027.10
2019-02-15T09:25:58.113Z,1027.09
2019-02-15T09:26:58.685Z,1027.18
2019-02-15T09:27:59.261Z,1027.20
2019-02-15T09:28:59.834Z,1027.19
2019-02-15T09:30:00.409Z,1027.18
2019-02-15T09:31:01.031Z,1027.16
2019-02-15T09:32:01.605Z,1027.14
2019-02-15T09:33:02.178Z,1027.14
2019-02-15T09:34:02.751Z,1027.14
2019-02-15T09:35:03.324Z,1027.14
2019-02-15T09:36:03.898Z,1027.25
2019-02-15T09:37:04.470Z,1027.21
2019-02-15T09:38:05.046Z,1027.21
2019-02-15T09:39:05.618Z,1027.33
2019-02-15T09:40:06.190Z,1027.21
2019-02-15T09:41:06.769Z,1027.19
2019-02-15T09:42:07.338Z,1027.19
2019-02-15T09:43:07.964Z,1027.24
2019-02-15T09:44:08.579Z,1027.29
2019-02-15T09:45:09.154Z,1027.24
2019-02-15T09:46:09.727Z,1027.33
2019-02-15T09:47:10.355Z,1027.35
2019-02-15T09:48:10.927Z,1027.36
2019-02-15T09:49:11.513Z,1027.35
2019-02-15T09:50:12.483Z,1027.36
2019-02-15T09:51:13.062Z,1027.37
2019-02-15T09:52:13.685Z,1027.37
2019-02-15T09:53:14.255Z,1027.38
2019-02-15T09:54:14.829Z,1027.43
2019-02-15T09:55:15.402Z,1027.39
2019-02-15T09:56:15.975Z,1027.48
2019-02-15T09:57:16.548Z,1027.44
2019-02-15T09:58:17.123Z,1027.48
2019-02-15T09:59:17.695Z,1027.38
2019-02-15T10:00:18.271Z,1027.52
2019-02-15T10:01:18.898Z,1027.45
2019-02-15T10:02:19.524Z,1027.48
2019-02-15T10:03:20.099Z,1027.49
2019-02-15T10:04:20.675Z,1027.43
2019-02-15T10:05:21.250Z,1027.49
2019-02-15T10:06:21.825Z,1027.44
2019-02-15T10:07:22.400Z,1027.50
2019-02-15T10:08:22.973Z,1027.49
2019-02-15T10:09:23.551Z,1027.57
2019-02-15T10:10:24.121Z,1027.53
2019-02-15T10:11:24.696Z,1027.46
2019-02-15T10:12:25.270Z,1027.47
2019-02-15T10:13:25.845Z,1027.48
2019-02-15T10:14:26.419Z,1027.48
2019-02-15T10:15:26.993Z,1027.50
2019-02-15T10:16:30.816Z,1027.45
2019-02-15T10:17:29.185Z,1027.44
2019-02-15T10:18:29.850Z,1027.43
2019-02-15T10:19:30.426Z,1027.45
2019-02-15T10:20:30.998Z,1027.50
2019-02-15T10:21:31.575Z,1027.43
2019-02-15T10:22:32.148Z,1027.52
2019-02-15T10:23:32.724Z,1027.49
2019-02-15T10:24:33.297Z,1027.50
2019-02-15T10:25:33.872Z,1027.57
2019-02-15T10:26:34.447Z,1027.57
2019-02-15T10:27:35.018Z,1027.57
2019-02-15T10:28:35.592Z,1027.58
2019-02-15T10:29:36.218Z,1027.61
2019-02-15T10:30:36.794Z,1027.66
2019-02-15T10:31:37.369Z,1027.55
2019-02-15T10:32:37.947Z,1027.68
2019-02-15T10:33:38.521Z,1027.63
2019-02-15T10:34:39.092Z,1027.69
2019-02-15T10:35:39.673Z,1027.66
2019-02-15T10:36:40.289Z,1027.71
2019-02-15T10:37:40.897Z,1027.71
2019-02-15T10:38:41.469Z,1027.69
2019-02-15T10:39:42.093Z,1027.71
2019-02-15T10:40:42.667Z,1027.74
2019-02-15T10:41:43.291Z,1027.75
2019-02-15T10:42:43.866Z,1027.76
2019-02-15T10:43:44.443Z,1027.81
2019-02-15T10:44:45.017Z,1027.81
2019-02-15T10:45:45.591Z,1027.85
2019-02-15T10:46:46.167Z,1027.84
2019-02-15T10:47:46.789Z,1027.81
2019-02-15T10:48:47.359Z,1027.87
2019-02-15T10:49:47.931Z,1027.89
2019-02-15T10:50:48.521Z,1027.93
2019-02-15T10:51:49.079Z,1027.89
2019-02-15T10:52:49.654Z,1027.89
2019-02-15T10:53:50.228Z,1027.99
2019-02-15T10:54:50.806Z,1027.96
2019-02-15T10:55:51.431Z,1028.02
2019-02-15T10:56:52.007Z,1027.99
2019-02-15T10:57:52.634Z,1027.95
2019-02-15T10:58:53.212Z,1027.96
2019-02-15T10:59:53.783Z,1027.97
2019-02-15T11:00:54.357Z,1027.98
2019-02-15T11:01:54.933Z,1027.97
2019-02-15T11:02:55.510Z,1027.92
2019-02-15T11:03:56.081Z,1028.05
2019-02-15T11:04:56.654Z,1028.00
2019-02-15T11:05:57.230Z,1027.95
2019-02-15T11:06:57.804Z,1027.99
2019-02-15T11:07:58.377Z,1028.01
2019-02-15T11:08:58.950Z,1028.04
2019-02-15T11:09:59.525Z,1028.02
2019-02-15T11:11:00.097Z,1028.06
2019-02-15T11:12:00.673Z,1028.07
2019-02-15T11:13:01.246Z,1028.13
2019-02-15T11:14:01.819Z,1028.06
2019-02-15T11:15:02.396Z,1028.03
2019-02-15T11:16:02.966Z,1028.06
2019-02-15T11:17:03.541Z,1028.03
2019-02-15T11:18:04.166Z,1028.15
2019-02-15T11:19:04.743Z,1028.11
2019-02-15T11:20:05.317Z,1027.99
2019-02-15T11:21:05.894Z,1028.09
2019-02-15T11:22:06.468Z,1028.02
2019-02-15T11:23:07.045Z,1028.02
2019-02-15T11:24:07.617Z,1028.03
2019-02-15T11:25:08.197Z,1028.03
2019-02-15T11:26:08.768Z,1028.04
2019-02-15T11:27:09.343Z,1028.00
2019-02-15T11:28:09.918Z,1027.97
2019-02-15T11:29:10.493Z,1028.03
2019-02-15T11:30:11.070Z,1028.02
2019-02-15T11:31:11.645Z,1028.02
2019-02-15T11:32:12.273Z,1028.01
2019-02-15T11:33:12.847Z,1027.90
2019-02-15T11:34:13.420Z,1028.01
2019-02-15T11:35:14.053Z,1027.97
2019-02-15T11:36:14.626Z,1027.89
2019-02-15T11:37:15.197Z,1028.00
2019-02-15T11:38:15.777Z,1027.98
2019-02-15T11:39:16.349Z,1027.96
2019-02-15T11:40:16.962Z,1028.04
2019-02-15T11:41:17.540Z,1027.99
2019-02-15T11:42:18.115Z,1027.96
2019-02-15T11:43:18.689Z,1027.96
2019-02-15T11:44:19.319Z,1027.97
2019-02-15T11:45:19.890Z,1027.95
2019-02-15T11:46:20.463Z,1027.96
2019-02-15T11:47:21.038Z,1027.90
2019-02-15T11:48:21.665Z,1027.88
2019-02-15T11:49:22.245Z,1027.97
2019-02-15T11:50:22.864Z,1028.00
2019-02-15T11:51:23.447Z,1028.00
2019-02-15T11:52:24.016Z,1027.95
2019-02-15T11:53:24.594Z,1028.03
2019-02-15T11:54:25.170Z,1027.99
2019-02-15T11:55:25.747Z,1027.94
2019-02-15T11:56:26.368Z,1027.95
2019-02-15T11:57:26.938Z,1027.95
2019-02-15T11:58:27.513Z,1027.97
2019-02-15T11:59:28.139Z,1028.01
2019-02-15T12:00:28.764Z,1028.01
2019-02-15T12:01:29.339Z,1027.94
2019-02-15T12:02:29.914Z,1027.99
2019-02-15T12:03:30.490Z,1027.90
2019-02-15T12:04:31.062Z,1027.93
2019-02-15T12:05:31.641Z,1027.92
2019-02-15T12:06:32.210Z,1027.92
2019-02-15T12:07:32.835Z,1027.91
2019-02-15T12:08:33.410Z,1027.84
2019-02-15T12:09:33.988Z,1027.85
2019-02-15T12:10:34.562Z,1027.88
2019-02-15T12:11:35.139Z,1027.88
2019-02-15T12:12:35.713Z,1027.96
2019-02-15T12:13:36.331Z,1027.96